createdAt,value
2022-09-20T00:01:07.917Z,0.77
2022-09-20T00:03:43.183Z,0.55
2022-09-20T00:06:19.577Z,0.50
2022-09-20T00:08:53.045Z,0.70
2022-09-20T00:11:28.587Z,0.70
2022-09-20T00:14:03.062Z,0.68
2022-09-20T00:16:39.033Z,0.55
2022-09-20T00:19:23.425Z,0.50
2022-09-20T00:21:57.668Z,0.68
2022-09-20T00:24:30.613Z,0.55
2022-09-20T00:27:03.844Z,0.63
2022-09-20T00:29:36.673Z,0.45
2022-09-20T00:32:10.511Z,0.68
2022-09-20T00:35:00.616Z,0.70
2022-09-20T00:37:35.202Z,0.70
2022-09-20T00:40:11.484Z,0.55
2022-09-20T00:42:44.711Z,0.65
2022-09-20T00:45:23.567Z,0.75
2022-09-20T00:48:00.528Z,0.50
2022-09-20T00:50:38.084Z,0.50
2022-09-20T00:53:16.463Z,0.47
2022-09-20T00:55:53.061Z,0.50
2022-09-20T00:58:27.823Z,0.60
2022-09-20T01:01:01.442Z,0.50
2022-09-20T01:03:37.828Z,0.80
2022-09-20T01:06:14.905Z,0.45
2022-09-20T01:08:52.607Z,0.45
2022-09-20T01:11:28.143Z,0.50
2022-09-20T01:14:01.121Z,0.55
2022-09-20T01:16:34.980Z,0.60
2022-09-20T01:19:17.612Z,0.70
2022-09-20T01:21:50.726Z,0.40
2022-09-20T01:24:31.703Z,0.77
2022-09-20T01:27:21.719Z,0.60
2022-09-20T01:30:06.372Z,0.63
2022-09-20T01:32:53.403Z,0.40
2022-09-20T01:35:29.988Z,0.80
2022-09-20T01:38:20.261Z,0.60
2022-09-20T01:41:04.125Z,0.57
2022-09-20T01:43:42.187Z,0.77
2022-09-20T01:46:30.036Z,0.70
2022-09-20T01:49:17.396Z,0.80
2022-09-20T01:52:22.706Z,0.57
2022-09-20T01:55:35.031Z,0.60
2022-09-20T02:00:59.589Z,0.45
2022-09-20T02:04:02.101Z,0.45
2022-09-20T02:07:07.941Z,0.68
2022-09-20T02:10:02.393Z,0.55
2022-09-20T02:12:55.314Z,0.50
2022-09-20T02:16:06.027Z,0.70
2022-09-20T02:18:56.930Z,0.60
2022-09-20T02:21:39.524Z,0.40
2022-09-20T02:24:24.403Z,0.65
2022-09-20T02:27:10.285Z,0.60
2022-09-20T02:29:49.535Z,0.60
2022-09-20T02:32:37.733Z,0.68
2022-09-20T02:35:21.035Z,0.45
2022-09-20T02:38:05.398Z,0.60
2022-09-20T02:41:01.874Z,0.60
2022-09-20T02:43:45.740Z,0.70
2022-09-20T02:46:25.382Z,0.60
2022-09-20T02:49:13.407Z,0.63
2022-09-20T02:51:53.046Z,0.70
2022-09-20T02:54:35.194Z,0.40
2022-09-20T02:57:19.115Z,0.60
2022-09-20T02:59:58.611Z,0.73
2022-09-20T03:02:44.239Z,0.60
2022-09-20T03:05:23.303Z,0.60
2022-09-20T03:08:10.518Z,0.52
2022-09-20T03:10:51.939Z,0.50
2022-09-20T03:13:44.437Z,0.73
2022-09-20T03:16:32.307Z,0.50
2022-09-20T03:19:18.377Z,0.60
2022-09-20T03:22:03.954Z,0.50
2022-09-20T03:24:52.831Z,0.60
2022-09-20T03:27:32.962Z,0.70
2022-09-20T03:30:33.541Z,0.50
2022-09-20T03:33:16.670Z,0.63
2022-09-20T03:36:06.539Z,0.50
2022-09-20T03:38:54.334Z,0.60
2022-09-20T03:41:40.515Z,0.70
2022-09-20T03:44:35.536Z,0.55
2022-09-20T03:47:27.195Z,0.40
2022-09-20T03:50:24.505Z,0.60
2022-09-20T03:53:21.250Z,0.50
2022-09-20T03:56:38.660Z,0.45
2022-09-20T03:59:23.551Z,0.80
2022-09-20T04:02:17.799Z,0.77
2022-09-20T04:04:55.816Z,0.30
2022-09-20T04:07:43.453Z,0.50
2022-09-20T04:10:30.917Z,0.43
2022-09-20T04:13:31.992Z,1.02
2022-09-20T04:16:27.056Z,0.73
2022-09-20T04:19:07.333Z,0.60
2022-09-20T04:21:47.250Z,0.50
2022-09-20T04:24:26.722Z,0.60
2022-09-20T04:27:04.872Z,1.02
2022-09-20T04:29:43.108Z,0.47
2022-09-20T04:32:23.042Z,0.60
2022-09-20T04:35:21.690Z,0.70
2022-09-20T04:37:56.170Z,0.60
2022-09-20T04:40:44.582Z,0.50
2022-09-20T04:43:53.787Z,0.75
2022-09-20T04:46:58.551Z,0.70
2022-09-20T04:50:00.444Z,0.90
2022-09-20T04:53:07.387Z,0.68
2022-09-20T04:55:57.019Z,0.60
2022-09-20T04:58:57.862Z,0.82
2022-09-20T05:02:13.802Z,0.63
2022-09-20T05:05:41.284Z,0.70
2022-09-20T05:08:48.201Z,0.70
2022-09-20T05:11:55.236Z,0.90
2022-09-20T05:14:43.202Z,0.68
2022-09-20T05:17:27.296Z,0.80
2022-09-20T05:20:37.151Z,0.68
2022-09-20T05:23:36.651Z,0.75
2022-09-20T05:26:18.371Z,0.65
2022-09-20T05:29:01.824Z,0.90
2022-09-20T05:31:41.274Z,0.75
2022-09-20T05:34:21.818Z,0.85
2022-09-20T05:37:03.327Z,0.60
2022-09-20T05:39:43.189Z,0.82
2022-09-20T05:42:22.500Z,0.73
2022-09-20T05:45:18.190Z,0.80
2022-09-20T05:47:58.138Z,1.40
2022-09-20T05:50:55.730Z,1.60
2022-09-20T05:53:57.299Z,1.05
2022-09-20T05:56:40.310Z,0.95
2022-09-20T05:59:36.409Z,0.80
2022-09-20T06:02:25.983Z,0.80
2022-09-20T06:05:04.711Z,0.70
2022-09-20T06:07:56.609Z,0.73
2022-09-20T06:10:47.275Z,0.70
2022-09-20T06:13:42.609Z,0.60
2022-09-20T06:16:23.045Z,0.90
2022-09-20T06:19:06.505Z,0.65
2022-09-20T06:21:52.966Z,0.60
2022-09-20T06:24:38.090Z,0.63
2022-09-20T06:27:15.154Z,0.65
2022-09-20T06:29:54.266Z,0.80
2022-09-20T06:32:28.605Z,0.70
2022-09-20T06:35:08.300Z,0.80
2022-09-20T06:38:08.608Z,0.75
2022-09-20T06:41:07.402Z,0.90
2022-09-20T06:43:42.091Z,0.80
2022-09-20T06:46:15.777Z,0.70
2022-09-20T06:48:51.249Z,0.50
2022-09-20T06:51:27.288Z,0.98
2022-09-20T06:54:00.317Z,0.50
2022-09-20T06:56:37.249Z,0.70
2022-09-20T06:59:10.482Z,0.70
2022-09-20T07:01:44.343Z,0.65
2022-09-20T07:04:17.392Z,0.70
2022-09-20T07:06:52.243Z,0.80
2022-09-20T07:09:25.377Z,0.60
2022-09-20T07:11:59.119Z,0.85
2022-09-20T07:14:32.135Z,1.00
2022-09-20T07:17:06.279Z,0.70
2022-09-20T07:19:39.372Z,0.80
2022-09-20T07:22:14.627Z,0.88
2022-09-20T07:24:48.360Z,1.00
2022-09-20T07:27:21.592Z,0.90
2022-09-20T07:29:55.033Z,1.23
2022-09-20T07:32:28.026Z,1.00
2022-09-20T07:35:02.014Z,0.82
2022-09-20T07:37:37.330Z,1.00
2022-09-20T07:40:12.436Z,0.95
2022-09-20T07:42:46.539Z,0.70
2022-09-20T07:45:19.356Z,0.90
2022-09-20T07:47:54.703Z,1.08
2022-09-20T07:50:28.014Z,0.75
2022-09-20T07:53:05.021Z,0.77
2022-09-20T07:55:39.599Z,1.00
2022-09-20T07:58:18.133Z,0.82
2022-09-20T08:00:53.559Z,0.75
2022-09-20T08:03:27.290Z,1.15
2022-09-20T08:06:01.246Z,0.80
2022-09-20T08:08:37.184Z,1.00
2022-09-20T08:11:14.426Z,0.75
2022-09-20T08:14:06.894Z,0.90
2022-09-20T08:16:43.909Z,0.90
2022-09-20T08:19:20.663Z,1.10
2022-09-20T08:21:54.472Z,0.80
2022-09-20T08:24:28.959Z,0.93
2022-09-20T08:27:04.164Z,1.25
2022-09-20T08:29:36.997Z,0.95
2022-09-20T08:32:10.382Z,0.70
2022-09-20T08:34:43.312Z,0.75
2022-09-20T08:37:16.496Z,1.00
2022-09-20T08:39:57.754Z,1.00
2022-09-20T08:42:37.850Z,1.23
2022-09-20T08:45:34.480Z,0.70
2022-09-20T08:48:15.899Z,0.93
2022-09-20T08:50:49.408Z,0.73
2022-09-20T08:53:22.353Z,1.00
2022-09-20T08:55:59.716Z,0.98
2022-09-20T08:58:34.224Z,0.88
2022-09-20T09:01:07.765Z,1.10
2022-09-20T09:03:40.711Z,1.13
2022-09-20T09:06:18.578Z,1.23
2022-09-20T09:08:54.036Z,0.82
2022-09-20T09:11:33.723Z,0.82
2022-09-20T09:14:26.902Z,0.95
2022-09-20T09:17:00.820Z,0.70
2022-09-20T09:19:44.565Z,0.98
2022-09-20T09:22:23.314Z,0.85
2022-09-20T09:25:11.956Z,1.40
2022-09-20T09:27:53.959Z,0.85
2022-09-20T09:30:30.214Z,0.95
2022-09-20T09:33:26.556Z,0.90
2022-09-20T09:36:05.820Z,0.90
2022-09-20T09:38:41.493Z,1.00
2022-09-20T09:41:26.621Z,0.73
2022-09-20T09:44:05.024Z,1.13
2022-09-20T09:46:40.046Z,0.85
2022-09-20T09:49:16.825Z,1.00
2022-09-20T09:52:13.464Z,0.90
2022-09-20T09:54:49.196Z,1.10
2022-09-20T09:57:53.900Z,0.93
2022-09-20T10:00:28.353Z,1.33
2022-09-20T10:03:15.265Z,0.70
2022-09-20T10:06:02.710Z,0.82
2022-09-20T10:08:44.856Z,0.75
2022-09-20T10:11:30.259Z,1.10
2022-09-20T10:14:16.711Z,0.82
2022-09-20T10:17:07.965Z,0.73
2022-09-20T10:20:00.015Z,0.90
2022-09-20T10:22:41.779Z,1.00
2022-09-20T10:25:23.931Z,0.50
2022-09-20T10:28:24.839Z,0.80
2022-09-20T10:31:15.258Z,0.85
2022-09-20T10:34:01.465Z,0.50
2022-09-20T10:36:50.018Z,0.77
2022-09-20T10:39:30.251Z,0.45
2022-09-20T10:42:36.100Z,0.70
2022-09-20T10:45:44.320Z,0.50
2022-09-20T10:48:25.880Z,0.85
2022-09-20T10:51:05.291Z,1.02
2022-09-20T10:53:48.484Z,0.65
2022-09-20T10:56:29.743Z,0.77
2022-09-20T10:59:32.534Z,1.05
2022-09-20T11:02:22.888Z,0.80
2022-09-20T11:05:18.095Z,0.80
2022-09-20T11:08:00.743Z,1.08
2022-09-20T11:10:39.205Z,0.80
2022-09-20T11:13:21.275Z,1.05
2022-09-20T11:16:01.769Z,1.05
2022-09-20T11:18:40.516Z,0.90
2022-09-20T11:21:20.645Z,2.15
2022-09-20T11:24:01.359Z,0.80
2022-09-20T11:26:39.785Z,1.08
2022-09-20T11:29:21.893Z,0.90
2022-09-20T11:31:59.269Z,0.88
2022-09-20T11:34:37.635Z,0.82
2022-09-20T11:37:10.762Z,1.27
2022-09-20T11:39:50.155Z,1.25
2022-09-20T11:42:27.293Z,1.20
2022-09-20T11:45:00.164Z,0.93
2022-09-20T11:47:53.838Z,1.25
2022-09-20T11:51:12.614Z,0.90
2022-09-20T11:54:01.725Z,1.10
2022-09-20T11:56:35.900Z,0.50
2022-09-20T11:59:28.264Z,1.20
2022-09-20T12:02:02.868Z,1.30
2022-09-20T12:04:38.191Z,0.98
2022-09-20T12:07:18.973Z,0.80
2022-09-20T12:09:59.093Z,0.70
2022-09-20T12:12:41.559Z,0.52
2022-09-20T12:15:26.228Z,0.70
2022-09-20T12:18:33.010Z,0.80
2022-09-20T12:21:16.182Z,0.88
2022-09-20T12:24:20.355Z,1.15
2022-09-20T12:26:57.404Z,0.60
2022-09-20T12:30:08.633Z,1.23
2022-09-20T12:32:48.776Z,0.70
2022-09-20T12:35:59.313Z,1.05
2022-09-20T12:38:49.689Z,0.57
2022-09-20T12:41:28.733Z,1.02
2022-09-20T12:44:07.872Z,0.88
2022-09-20T12:46:50.820Z,0.60
2022-09-20T12:50:01.208Z,0.60
2022-09-20T12:52:56.251Z,0.43
2022-09-20T12:55:38.470Z,0.73
2022-09-20T12:58:25.453Z,0.40
2022-09-20T13:01:31.074Z,0.60
2022-09-20T13:04:56.274Z,0.50
2022-09-20T13:07:58.083Z,0.60
2022-09-20T13:10:39.237Z,0.80
2022-09-20T13:13:27.611Z,0.60
2022-09-20T13:16:05.775Z,0.80
2022-09-20T13:18:40.447Z,1.08
2022-09-20T13:21:13.405Z,0.60
2022-09-20T13:23:53.024Z,1.33
2022-09-20T13:26:31.098Z,0.52
2022-09-20T13:29:08.414Z,0.65
2022-09-20T13:31:41.243Z,0.57
2022-09-20T13:34:16.071Z,0.50
2022-09-20T13:36:56.016Z,0.38
2022-09-20T13:39:37.756Z,0.68
2022-09-20T13:42:19.301Z,0.68
2022-09-20T13:44:52.441Z,0.70
2022-09-20T13:47:28.498Z,0.68
2022-09-20T13:50:02.951Z,0.40
2022-09-20T13:52:45.371Z,0.90
2022-09-20T13:55:29.078Z,0.77
2022-09-20T13:58:05.456Z,0.63
2022-09-20T14:00:46.047Z,0.60
2022-09-20T14:03:20.811Z,1.05
2022-09-20T14:05:57.223Z,0.98
2022-09-20T14:08:37.087Z,1.38
2022-09-20T14:11:17.568Z,1.10
2022-09-20T14:13:54.152Z,0.73
2022-09-20T14:16:31.115Z,0.60
2022-09-20T14:19:07.875Z,0.88
2022-09-20T14:21:41.048Z,0.68
2022-09-20T14:24:28.724Z,0.60
2022-09-20T14:27:16.011Z,0.85
2022-09-20T14:29:51.573Z,0.60
2022-09-20T14:32:38.819Z,0.60
2022-09-20T14:35:18.551Z,0.50
2022-09-20T14:37:53.221Z,0.65
2022-09-20T14:40:28.460Z,0.60
2022-09-20T14:43:04.852Z,0.50
2022-09-20T14:45:41.220Z,0.95
2022-09-20T14:48:33.480Z,0.70
2022-09-20T14:51:23.153Z,0.73
2022-09-20T14:54:24.530Z,0.70
2022-09-20T14:56:59.459Z,0.73
2022-09-20T14:59:42.794Z,0.55
2022-09-20T15:02:16.938Z,0.80
2022-09-20T15:04:54.824Z,0.60
2022-09-20T15:07:27.877Z,0.52
2022-09-20T15:10:01.011Z,0.63
2022-09-20T15:12:33.783Z,0.73
2022-09-20T15:15:14.969Z,0.73
2022-09-20T15:17:48.829Z,0.70
2022-09-20T15:20:24.566Z,0.80
2022-09-20T15:22:58.018Z,0.68
2022-09-20T15:25:30.819Z,0.60
2022-09-20T15:28:04.061Z,0.73
2022-09-20T15:30:38.387Z,0.60
2022-09-20T15:33:11.979Z,0.70
2022-09-20T15:35:47.758Z,0.60
2022-09-20T15:38:22.649Z,0.70
2022-09-20T15:40:55.646Z,0.60
2022-09-20T15:43:30.336Z,0.73
2022-09-20T15:46:19.078Z,0.57
2022-09-20T15:48:53.115Z,0.57
2022-09-20T15:51:26.456Z,0.80
2022-09-20T15:54:00.873Z,0.70
2022-09-20T15:56:35.538Z,0.65
2022-09-20T15:59:09.729Z,0.82
2022-09-20T16:01:48.260Z,0.80
2022-09-20T16:04:24.056Z,0.60
2022-09-20T16:06:57.104Z,0.95
2022-09-20T16:09:29.844Z,0.75
2022-09-20T16:12:04.588Z,0.80
2022-09-20T16:14:37.320Z,0.90
2022-09-20T16:17:11.527Z,0.85
2022-09-20T16:19:44.818Z,0.80
2022-09-20T16:22:19.361Z,0.60
2022-09-20T16:24:52.133Z,0.70
2022-09-20T16:27:24.900Z,0.80
2022-09-20T16:29:57.725Z,0.70
2022-09-20T16:32:31.987Z,0.70
2022-09-20T16:35:07.890Z,1.08
2022-09-20T16:37:40.687Z,0.63
2022-09-20T16:40:15.143Z,0.57
2022-09-20T16:42:52.254Z,0.50
2022-09-20T16:45:27.720Z,0.70
2022-09-20T16:48:08.441Z,0.70
2022-09-20T16:50:41.647Z,0.77
2022-09-20T16:53:14.759Z,0.95
2022-09-20T16:55:48.951Z,0.70
2022-09-20T16:58:22.627Z,0.77
2022-09-20T17:00:55.866Z,0.77
2022-09-20T17:03:30.366Z,0.80
2022-09-20T17:06:03.354Z,0.55
2022-09-20T17:08:38.806Z,0.55
2022-09-20T17:11:14.991Z,0.70
2022-09-20T17:13:51.375Z,0.82
2022-09-20T17:16:26.121Z,1.00
2022-09-20T17:19:01.817Z,0.65
2022-09-20T17:21:36.544Z,0.77
2022-09-20T17:24:09.484Z,0.80
2022-09-20T17:26:45.053Z,1.23
2022-09-20T17:29:21.417Z,0.68
2022-09-20T17:32:02.146Z,0.82
2022-09-20T17:34:36.698Z,0.70
2022-09-20T17:37:09.716Z,1.00
2022-09-20T17:39:43.150Z,0.90
2022-09-20T17:42:15.990Z,0.90
2022-09-20T17:44:48.775Z,0.90
2022-09-20T17:47:22.364Z,0.90
2022-09-20T17:49:57.825Z,1.00
2022-09-20T17:52:30.701Z,0.90
2022-09-20T17:55:03.786Z,1.08
2022-09-20T17:57:37.583Z,1.13
2022-09-20T18:00:11.542Z,1.00
2022-09-20T18:02:44.376Z,0.82
2022-09-20T18:05:18.919Z,1.20
2022-09-20T18:07:53.082Z,0.90
2022-09-20T18:10:29.167Z,0.90
2022-09-20T18:13:02.309Z,0.70
2022-09-20T18:15:35.375Z,1.35
2022-09-20T18:18:10.893Z,0.98
2022-09-20T18:20:45.421Z,0.90
2022-09-20T18:23:18.281Z,1.30
2022-09-20T18:26:09.276Z,0.90
2022-09-20T18:28:44.907Z,0.82
2022-09-20T18:31:20.746Z,1.33
2022-09-20T18:33:56.416Z,1.33
2022-09-20T18:36:32.255Z,1.45
2022-09-20T18:39:06.115Z,1.30
2022-09-20T18:41:41.220Z,1.20
2022-09-20T18:44:14.811Z,1.27
2022-09-20T18:46:48.347Z,1.10
2022-09-20T18:49:21.715Z,0.90
2022-09-20T18:51:56.080Z,0.95
2022-09-20T18:54:30.498Z,0.90
2022-09-20T18:57:03.984Z,1.05
2022-09-20T18:59:37.577Z,1.10
2022-09-20T19:02:36.147Z,1.10
2022-09-20T19:05:23.203Z,1.00
2022-09-20T19:08:11.966Z,1.15
2022-09-20T19:10:50.626Z,1.50
2022-09-20T19:13:32.500Z,1.17
2022-09-20T19:19:21.598Z,1.00
2022-09-20T19:22:00.343Z,1.20
2022-09-20T19:24:48.263Z,1.08
2022-09-20T19:27:21.593Z,1.30
2022-09-20T19:29:55.276Z,0.90
2022-09-20T19:32:30.288Z,0.90
2022-09-20T19:35:03.954Z,1.35
2022-09-20T19:37:47.935Z,1.20
2022-09-20T19:40:35.101Z,1.10
2022-09-20T19:43:27.132Z,1.25
2022-09-20T19:48:40.315Z,1.27
2022-09-20T19:51:15.109Z,1.02
2022-09-20T19:53:50.235Z,1.10
2022-09-20T19:56:27.720Z,0.88
2022-09-20T19:59:01.200Z,1.10
2022-09-20T20:01:34.759Z,1.10
2022-09-20T20:04:10.179Z,1.20
2022-09-20T20:06:52.449Z,1.20
2022-09-20T20:09:35.152Z,1.00
2022-09-20T20:12:15.979Z,1.20
2022-09-20T20:14:58.357Z,0.90
2022-09-20T20:17:47.157Z,1.27
2022-09-20T20:20:27.792Z,1.25
2022-09-20T20:23:20.830Z,1.20
2022-09-20T20:26:02.795Z,1.10
2022-09-20T20:28:38.186Z,1.15
2022-09-20T20:31:12.646Z,1.38
2022-09-20T20:33:45.592Z,1.05
2022-09-20T20:36:19.057Z,1.20
2022-09-20T20:38:53.377Z,1.10
2022-09-20T20:41:26.272Z,1.08
2022-09-20T20:44:06.354Z,1.27
2022-09-20T20:46:39.356Z,1.30
2022-09-20T20:49:19.620Z,1.15
2022-09-20T20:51:56.213Z,1.50
2022-09-20T20:54:42.754Z,1.60
2022-09-20T20:57:17.167Z,1.23
2022-09-20T20:59:54.272Z,1.70
2022-09-20T21:02:27.186Z,1.30
2022-09-20T21:05:03.343Z,1.73
2022-09-20T21:07:39.496Z,1.50
2022-09-20T21:10:13.213Z,1.45
2022-09-20T21:12:46.184Z,1.40
2022-09-20T21:15:21.560Z,1.25
2022-09-20T21:17:57.003Z,1.40
2022-09-20T21:20:31.263Z,1.35
2022-09-20T21:23:04.086Z,1.08
2022-09-20T21:25:51.839Z,1.42
2022-09-20T21:28:25.266Z,1.35
2022-09-20T21:31:05.044Z,1.63
2022-09-20T21:33:39.920Z,1.40
2022-09-20T21:36:23.809Z,1.45
2022-09-20T21:38:57.142Z,1.23
2022-09-20T21:41:50.532Z,1.40
2022-09-20T21:44:23.488Z,1.15
2022-09-20T21:47:07.566Z,1.33
2022-09-20T21:49:46.177Z,1.27
2022-09-20T21:52:19.416Z,1.42
2022-09-20T21:55:01.557Z,1.30
2022-09-20T21:57:34.991Z,1.40
2022-09-20T22:00:10.349Z,1.45
2022-09-20T22:02:48.326Z,1.50
2022-09-20T22:05:21.681Z,1.20
2022-09-20T22:08:06.634Z,1.40
2022-09-20T22:10:39.599Z,1.30
2022-09-20T22:13:13.754Z,1.30
2022-09-20T22:15:49.088Z,1.40
2022-09-20T22:18:23.814Z,1.40
2022-09-20T22:21:03.601Z,1.20
2022-09-20T22:23:37.436Z,1.27
2022-09-20T22:26:12.256Z,1.20
2022-09-20T22:28:45.408Z,1.42
2022-09-20T22:31:20.318Z,1.40
2022-09-20T22:33:56.032Z,1.20
2022-09-20T22:36:30.182Z,1.33
2022-09-20T22:39:03.677Z,1.23
2022-09-20T22:41:36.824Z,1.35
2022-09-20T22:44:10.338Z,1.25
2022-09-20T22:46:43.219Z,1.42
2022-09-20T22:49:17.440Z,1.17
2022-09-20T22:51:50.176Z,1.40
2022-09-20T22:54:23.059Z,1.23
2022-09-20T22:56:55.836Z,1.25
2022-09-20T22:59:29.726Z,1.23
2022-09-20T23:02:02.800Z,1.45
2022-09-20T23:04:37.027Z,1.20
2022-09-20T23:07:09.957Z,1.27
2022-09-20T23:09:43.005Z,1.20
2022-09-20T23:12:15.751Z,1.40
2022-09-20T23:14:48.581Z,1.38
2022-09-20T23:17:21.595Z,1.30
2022-09-20T23:19:55.924Z,1.30
2022-09-20T23:22:28.736Z,1.00
2022-09-20T23:25:01.977Z,1.20
2022-09-20T23:27:37.375Z,1.20
2022-09-20T23:30:10.985Z,1.02
2022-09-20T23:32:43.730Z,0.95
2022-09-20T23:35:17.982Z,1.27
2022-09-20T23:37:52.074Z,1.45
2022-09-20T23:40:26.244Z,1.42
2022-09-20T23:42:59.902Z,1.50
2022-09-20T23:45:33.031Z,1.30
2022-09-20T23:48:07.346Z,1.10
2022-09-20T23:50:44.226Z,1.45
2022-09-20T23:53:18.431Z,1.15
2022-09-20T23:55:51.665Z,1.10
2022-09-20T23:58:24.384Z,1.27
